LGA weather

La Guardia Airport
New York, New York, United States

Public forecast

Using degrees Fahrenheit for public forecast. Weather courtesy of forecast.io.

METAR (pilot weather report)

Retrieved 2017/12/10 22:51 UTC (9 minutes ago):

KLGA 102251Z 26014G24KT 10SM FEW040 SCT060 03/M06 A2998 RMK AO2 SLP153 T00331061 $

TAF (pilot weather forecast)

Retrieved 2017/12/10 18:22 UTC (5 hours ago):

TAF KLGA 101720Z 1018/1124 26012G19KT P6SM SKC FM102300 26012KT P6SM SKC FM110400 24010KT P6SM BKN080 FM111000 26009KT P6SM VCSH BKN035 FM111300 28010KT P6SM FEW070 SCT250 FM111600 28010G17KT P6SM SKC FM112000 29008KT P6SM SCT250